Aérodrome :
LOGIN :

S'inscrire | Disclaimer

   EN    FR    IT 

 










Légende :    VFR   VFR Marginal   IFR   IFR Intensif   IFR Très Intensif
Visi : 
Plafond : 
>= 8 km
>= 3000ft
5 à 8 km
1000 à 3000 ft
1500m à 5 km
500 à 1000 ft
800 à 1500m
200 à 500 ft
< 800m
< 200 ft
Symboles :   Orages  Brouillard  Fortes neiges  Fortes précipitations  Vent > 20 kt
SIGMETs :   Divers  Orages  Givrage  Turbulence  Onde Orograph.  Cendres Volcan.







- Altitude de l'aérodrome : 194 ft
- Code IATA : ANE
- Voir les cartes d'approche


LFJR - Angers Marcé

DERNIER METAR :
  • 270600Z AUTO 14004KT CAVOK 08/06 Q1010 NOSIG

METARs EXPIRÉS :
  • 270530Z AUTO 13006KT CAVOK 07/06 Q1010
  • 270500Z AUTO 13006KT CAVOK 05/05 Q1010
  • 270430Z AUTO 12006KT CAVOK 04/04 Q1010
  • 270400Z AUTO 12005KT CAVOK 04/03 Q1010
  • 270330Z AUTO 12004KT CAVOK 05/05 Q1011

TAF TAF LFJR
Valide du 27 à 06h jusqu'au 27 à 15h UTC


270500Z 2706/2715 16006KT CAVOK
BECMG 2709/2711 21015G25KT
TEMPO 2712/2715 23017G32KT
TEMPO 2712/2715 4000 -RA
Pas de NOTAMs connus pour ce terrain.
1 SIGMET publié pour la FIR Brest (LFRR) :
 
Turbulence forte
LFRR SIGMET 1 VALID 270400/270800 LFPW
LFRR BREST FIR/UIR SEV TURB FCST WI N4600 W00800 - N4815 W00800 - N4815 W00615 - N4600 W00630 - N4600 W00800 SFC/FL060 MOV E 20KT NC=



MET'MAP, la Météo Aéronautique d'un coup d'oeil ! - Copyright ORBIFLY Décembre 2007 - Disclaimer

ORBIFLY MET'MAP TEAM :

Programmation & Développement : Alexandra Zaïnal
Conception & Développement : Baudouin d'Aumeries
Co-Programmation & Développement : Marc-Olivier Méhu
Soutien technique & logistique : Manuel Goepfert

Contact : metmap@orbifly.com




SOURCES & CREDITS :

   NOAA